createdAt,value
2022-08-05T00:00:23.964Z,6.15
2022-08-05T00:02:54.171Z,6.97
2022-08-05T00:06:01.903Z,7.60
2022-08-05T00:08:32.740Z,7.22
2022-08-05T00:11:01.520Z,5.90
2022-08-05T00:13:39.284Z,4.38
2022-08-05T00:18:44.315Z,7.47
2022-08-05T00:21:14.823Z,6.47
2022-08-05T00:23:46.657Z,6.85
2022-08-05T00:26:22.287Z,6.45
2022-08-05T00:28:50.993Z,5.63
2022-08-05T00:31:54.085Z,5.78
2022-08-05T00:34:56.204Z,6.35
2022-08-05T00:37:11.837Z,7.32
2022-08-05T00:39:57.321Z,6.38
2022-08-05T00:42:34.559Z,4.43
2022-08-05T00:45:03.394Z,4.32
2022-08-05T00:47:56.263Z,4.30
2022-08-05T00:50:20.950Z,6.68
2022-08-05T00:52:50.538Z,5.88
2022-08-05T00:55:21.464Z,6.65
2022-08-05T00:57:58.569Z,5.55
2022-08-05T01:00:27.963Z,9.13
2022-08-05T01:02:56.470Z,5.97
2022-08-05T01:05:24.951Z,7.18
2022-08-05T01:08:39.925Z,6.90
2022-08-05T01:10:52.845Z,7.43
2022-08-05T01:13:27.231Z,7.68
2022-08-05T01:16:26.107Z,5.13
2022-08-05T01:19:01.789Z,8.45
2022-08-05T01:21:58.927Z,5.43
2022-08-05T01:24:43.141Z,6.00
2022-08-05T01:27:26.970Z,8.48
2022-08-05T01:30:03.719Z,8.25
2022-08-05T01:32:34.747Z,6.80
2022-08-05T01:35:10.417Z,6.72
2022-08-05T01:37:45.218Z,8.13
2022-08-05T01:40:17.882Z,9.50
2022-08-05T01:42:47.610Z,5.85
2022-08-05T01:45:17.879Z,8.85
2022-08-05T01:47:54.333Z,9.05
2022-08-05T01:50:37.215Z,8.20
2022-08-05T01:53:12.863Z,5.78
2022-08-05T01:55:45.054Z,9.48
2022-08-05T01:58:40.536Z,6.78
2022-08-05T02:01:05.540Z,7.65
2022-08-05T02:03:40.611Z,8.27
2022-08-05T02:06:37.369Z,7.35
2022-08-05T02:08:59.353Z,6.32
2022-08-05T02:11:34.165Z,6.40
2022-08-05T02:14:12.550Z,5.32
2022-08-05T02:16:52.185Z,5.13
2022-08-05T02:19:34.274Z,5.60
2022-08-05T02:22:06.493Z,8.43
2022-08-05T02:24:38.648Z,8.07
2022-08-05T02:27:12.333Z,7.45
2022-08-05T02:29:59.849Z,9.00
2022-08-05T02:32:32.785Z,8.95
2022-08-05T02:35:13.840Z,7.10
2022-08-05T02:37:47.859Z,6.30
2022-08-05T02:40:24.309Z,8.63
2022-08-05T02:42:55.238Z,9.55
2022-08-05T02:45:25.461Z,9.90
2022-08-05T02:48:06.466Z,7.10
2022-08-05T02:50:39.250Z,6.32
2022-08-05T02:53:19.229Z,7.90
2022-08-05T02:55:53.826Z,7.30
2022-08-05T02:58:26.761Z,7.90
2022-08-05T03:00:57.538Z,8.50
2022-08-05T03:03:34.151Z,9.57
2022-08-05T03:06:56.030Z,8.35
2022-08-05T03:09:07.736Z,9.73
2022-08-05T03:11:55.420Z,11.23
2022-08-05T03:14:23.891Z,15.50
2022-08-05T03:16:54.455Z,13.32
2022-08-05T03:19:33.863Z,14.02
2022-08-05T03:22:03.240Z,18.15
2022-08-05T03:24:33.765Z,13.32
2022-08-05T03:29:45.378Z,20.90
2022-08-05T03:32:31.098Z,18.42
2022-08-05T03:35:01.024Z,16.38
2022-08-05T03:37:41.650Z,17.40
2022-08-05T03:40:31.313Z,18.73
2022-08-05T03:43:01.322Z,20.30
2022-08-05T03:45:57.386Z,22.95
2022-08-05T03:48:27.349Z,20.15
2022-08-05T03:52:37.668Z,16.90
2022-08-05T03:55:50.264Z,20.95
2022-08-05T03:56:46.569Z,20.35
2022-08-05T03:59:20.385Z,21.63
2022-08-05T04:01:52.214Z,20.27
2022-08-05T04:04:22.631Z,18.23
2022-08-05T04:06:56.693Z,21.05
2022-08-05T04:09:26.567Z,20.33
2022-08-05T04:14:30.421Z,20.45
2022-08-05T04:17:00.863Z,20.58
2022-08-05T04:19:31.275Z,18.85
2022-08-05T04:22:09.158Z,23.90
2022-08-05T04:24:44.453Z,20.42
2022-08-05T04:27:41.801Z,18.40
2022-08-05T04:30:10.276Z,19.63
2022-08-05T04:35:17.559Z,18.73
2022-08-05T04:38:00.850Z,20.48
2022-08-05T04:40:30.131Z,22.92
2022-08-05T04:42:58.050Z,19.88
2022-08-05T04:45:47.733Z,20.33
2022-08-05T04:48:18.593Z,27.23
2022-08-05T04:51:02.736Z,26.60
2022-08-05T04:53:39.588Z,26.80
2022-08-05T04:56:32.790Z,26.13
2022-08-05T04:58:57.473Z,29.08
2022-08-05T05:01:33.469Z,30.92
2022-08-05T05:04:13.703Z,32.58
2022-08-05T05:06:49.294Z,29.40
2022-08-05T05:09:21.569Z,32.42
2022-08-05T05:14:28.023Z,32.45
2022-08-05T05:17:00.497Z,30.88
2022-08-05T05:19:36.776Z,27.25
2022-08-05T05:22:24.472Z,28.88
2022-08-05T05:24:56.886Z,29.98
2022-08-05T05:27:44.376Z,31.27
2022-08-05T05:30:15.342Z,33.55
2022-08-05T05:32:56.753Z,38.05
2022-08-05T05:35:25.444Z,39.33
2022-08-05T05:38:01.828Z,37.65
2022-08-05T05:40:32.563Z,44.20
2022-08-05T05:43:02.568Z,43.83
2022-08-05T05:45:30.628Z,47.08
2022-08-05T05:48:06.410Z,50.00
2022-08-05T05:50:41.317Z,52.13
2022-08-05T05:53:21.255Z,52.38
2022-08-05T05:56:00.885Z,48.17
2022-08-05T05:58:32.441Z,45.25
2022-08-05T06:01:12.129Z,44.30
2022-08-05T06:04:00.648Z,47.28
2022-08-05T06:06:31.097Z,38.88
2022-08-05T06:09:01.153Z,39.05
2022-08-05T06:11:30.672Z,38.33
2022-08-05T06:14:00.306Z,35.20
2022-08-05T06:16:32.690Z,38.10
2022-08-05T06:19:06.949Z,35.70
2022-08-05T06:21:36.668Z,36.55
2022-08-05T06:24:07.745Z,37.03
2022-08-05T06:26:51.557Z,28.60
2022-08-05T06:32:20.876Z,26.38
2022-08-05T06:34:56.727Z,23.10
2022-08-05T06:37:52.250Z,24.02
2022-08-05T06:40:18.493Z,25.92
2022-08-05T06:42:51.955Z,22.33
2022-08-05T06:45:44.634Z,21.73
2022-08-05T06:50:58.516Z,23.92
2022-08-05T06:55:58.287Z,20.03
2022-08-05T06:58:35.361Z,19.90
2022-08-05T07:01:06.870Z,20.48
2022-08-05T07:03:35.767Z,20.70
2022-08-05T07:06:06.114Z,14.20
2022-08-05T07:08:47.928Z,16.70
2022-08-05T07:11:21.906Z,16.58
2022-08-05T07:14:20.202Z,14.23
2022-08-05T07:18:08.589Z,13.75
2022-08-05T07:20:31.427Z,15.38
2022-08-05T07:22:36.253Z,16.73
2022-08-05T07:25:23.418Z,17.52
2022-08-05T07:27:58.296Z,16.05
2022-08-05T07:30:33.986Z,16.17
2022-08-05T07:33:04.997Z,14.90
2022-08-05T07:36:04.593Z,15.43
2022-08-05T07:38:32.234Z,13.07
2022-08-05T07:42:09.069Z,13.18
2022-08-05T07:46:26.521Z,15.38
2022-08-05T07:49:02.628Z,14.70
2022-08-05T07:51:40.942Z,21.73
2022-08-05T07:54:26.209Z,12.50
2022-08-05T07:57:01.306Z,12.80
2022-08-05T07:59:42.925Z,14.10
2022-08-05T08:02:17.131Z,14.07
2022-08-05T08:04:48.277Z,20.50
2022-08-05T08:07:17.892Z,16.00
2022-08-05T08:09:46.816Z,16.52
2022-08-05T08:12:37.318Z,18.48
2022-08-05T08:15:04.844Z,16.45
2022-08-05T08:17:39.173Z,16.25
2022-08-05T08:20:42.704Z,17.55
2022-08-05T08:23:03.783Z,13.90
2022-08-05T08:26:00.350Z,13.93
2022-08-05T08:28:36.730Z,15.57
2022-08-05T08:31:06.137Z,13.43
2022-08-05T08:33:37.939Z,16.60
2022-08-05T08:38:56.853Z,13.38
2022-08-05T08:41:51.055Z,12.65
2022-08-05T08:45:20.711Z,12.30
2022-08-05T08:50:31.930Z,10.77
2022-08-05T08:52:55.871Z,10.90
2022-08-05T08:55:32.046Z,12.15
2022-08-05T08:58:13.235Z,10.93
2022-08-05T09:00:44.365Z,11.57
2022-08-05T09:03:16.219Z,12.27
2022-08-05T09:06:08.148Z,12.63
2022-08-05T09:08:40.163Z,12.70
2022-08-05T09:11:13.699Z,12.25
2022-08-05T09:14:09.517Z,14.02
2022-08-05T09:16:32.168Z,12.85
2022-08-05T09:19:00.221Z,13.15
2022-08-05T09:22:22.776Z,13.43
2022-08-05T09:24:18.002Z,8.60
2022-08-05T09:26:51.697Z,11.15
2022-08-05T09:29:20.218Z,9.30
2022-08-05T09:32:43.067Z,10.68
2022-08-05T09:34:52.597Z,11.25
2022-08-05T09:38:12.454Z,9.68
2022-08-05T09:40:30.546Z,8.10
2022-08-05T09:43:01.382Z,7.65
2022-08-05T09:48:27.102Z,9.25
2022-08-05T09:50:59.074Z,10.57
2022-08-05T09:53:54.725Z,11.50
2022-08-05T09:56:26.340Z,11.02
2022-08-05T09:58:59.161Z,10.98
2022-08-05T10:01:32.561Z,9.60
2022-08-05T10:04:04.220Z,11.63
2022-08-05T10:06:40.536Z,13.32
2022-08-05T10:12:30.073Z,12.15
2022-08-05T10:15:17.198Z,11.73
2022-08-05T10:17:54.442Z,12.77
2022-08-05T10:20:27.006Z,13.40
2022-08-05T10:22:55.984Z,11.88
2022-08-05T10:25:28.483Z,11.07
2022-08-05T10:28:12.980Z,11.20
2022-08-05T10:32:47.512Z,10.07
2022-08-05T10:33:36.081Z,11.70
2022-08-05T10:36:05.472Z,11.35
2022-08-05T10:38:35.443Z,11.07
2022-08-05T10:43:48.705Z,9.40
2022-08-05T10:46:18.908Z,12.57
2022-08-05T10:49:02.778Z,11.95
2022-08-05T10:51:53.050Z,9.55
2022-08-05T10:54:56.545Z,10.07
2022-08-05T10:57:32.067Z,10.18
2022-08-05T11:00:18.707Z,7.70
2022-08-05T11:03:25.859Z,7.43
2022-08-05T11:06:06.211Z,7.68
2022-08-05T11:08:39.247Z,7.03
2022-08-05T11:11:44.608Z,7.40
2022-08-05T11:14:57.861Z,6.88
2022-08-05T11:17:56.777Z,7.22
2022-08-05T11:20:34.523Z,7.43
2022-08-05T11:23:33.725Z,6.15
2022-08-05T11:26:28.207Z,7.68
2022-08-05T11:28:59.402Z,8.30
2022-08-05T11:31:57.147Z,7.53
2022-08-05T11:34:37.857Z,7.28
2022-08-05T11:38:28.728Z,6.50
2022-08-05T11:40:00.626Z,7.32
2022-08-05T11:42:40.560Z,8.75
2022-08-05T11:45:14.232Z,8.30
2022-08-05T11:47:56.262Z,8.15
2022-08-05T11:50:25.749Z,8.13
2022-08-05T11:52:57.749Z,5.75
2022-08-05T11:55:31.563Z,6.10
2022-08-05T11:58:09.677Z,5.45
2022-08-05T12:00:41.567Z,7.10
2022-08-05T12:03:29.309Z,7.03
2022-08-05T12:06:02.696Z,5.22
2022-08-05T12:08:32.839Z,5.47
2022-08-05T12:11:06.007Z,4.53
2022-08-05T12:13:49.684Z,7.18
2022-08-05T12:16:25.717Z,5.22
2022-08-05T12:18:57.058Z,6.00
2022-08-05T12:21:30.187Z,7.47
2022-08-05T12:24:04.921Z,6.57
2022-08-05T12:26:34.560Z,4.82
2022-08-05T12:29:03.550Z,4.47
2022-08-05T12:31:42.399Z,4.97
2022-08-05T12:34:21.569Z,5.13
2022-08-05T12:36:53.707Z,5.57
2022-08-05T12:39:23.490Z,5.35
2022-08-05T12:41:59.516Z,5.82
2022-08-05T12:44:33.220Z,6.25
2022-08-05T12:47:03.717Z,7.53
2022-08-05T12:50:04.747Z,4.72
2022-08-05T12:52:41.668Z,4.93
2022-08-05T12:55:23.632Z,6.43
2022-08-05T12:58:50.934Z,4.25
2022-08-05T13:01:59.951Z,5.30
2022-08-05T13:03:33.514Z,3.63
2022-08-05T13:06:03.199Z,4.00
2022-08-05T13:08:32.822Z,5.38
2022-08-05T13:14:04.840Z,5.50
2022-08-05T13:16:20.255Z,5.45
2022-08-05T13:18:52.969Z,4.18
2022-08-05T13:21:27.726Z,4.45
2022-08-05T13:26:33.659Z,2.47
2022-08-05T13:29:01.914Z,4.47
2022-08-05T13:31:34.018Z,4.18
2022-08-05T13:34:22.858Z,2.70
2022-08-05T13:36:55.081Z,3.22
2022-08-05T13:40:12.861Z,6.90
2022-08-05T13:42:15.020Z,3.67
2022-08-05T13:44:45.703Z,2.13
2022-08-05T13:47:34.557Z,3.83
2022-08-05T13:50:04.480Z,3.77
2022-08-05T13:52:35.574Z,4.25
2022-08-05T13:55:07.915Z,5.28
2022-08-05T13:57:48.757Z,3.92
2022-08-05T14:00:27.477Z,6.75
2022-08-05T14:02:56.830Z,4.63
2022-08-05T14:05:48.084Z,2.90
2022-08-05T14:08:20.052Z,3.30
2022-08-05T14:10:49.761Z,3.22
2022-08-05T14:13:17.748Z,3.90
2022-08-05T14:16:04.935Z,4.07
2022-08-05T14:18:38.018Z,4.57
2022-08-05T14:22:07.491Z,2.70
2022-08-05T14:23:55.870Z,2.85
2022-08-05T14:26:36.995Z,4.25
2022-08-05T14:29:16.173Z,2.53
2022-08-05T14:32:02.505Z,2.28
2022-08-05T14:34:35.652Z,2.55
2022-08-05T14:37:04.683Z,4.03
2022-08-05T14:39:49.637Z,2.25
2022-08-05T14:42:23.331Z,3.08
2022-08-05T14:44:53.248Z,3.38
2022-08-05T14:47:58.364Z,2.38
2022-08-05T14:50:18.359Z,1.63
2022-08-05T14:52:53.479Z,2.17
2022-08-05T14:55:38.501Z,2.20
2022-08-05T14:58:10.912Z,4.05
2022-08-05T15:00:58.459Z,3.03
2022-08-05T15:03:33.092Z,1.80
2022-08-05T15:06:07.314Z,2.55
2022-08-05T15:08:58.075Z,2.63
2022-08-05T15:11:51.372Z,2.85
2022-08-05T15:14:33.641Z,4.65
2022-08-05T15:17:05.469Z,2.75
2022-08-05T15:19:49.137Z,3.42
2022-08-05T15:22:21.542Z,2.28
2022-08-05T15:24:49.501Z,4.38
2022-08-05T15:27:19.825Z,3.17
2022-08-05T15:29:48.038Z,3.72
2022-08-05T15:32:17.092Z,3.20
2022-08-05T15:34:45.076Z,2.47
2022-08-05T15:37:14.837Z,4.72
2022-08-05T15:41:01.187Z,2.78
2022-08-05T15:42:55.643Z,2.92
2022-08-05T15:45:37.990Z,3.75
2022-08-05T15:48:07.161Z,3.05
2022-08-05T15:50:35.270Z,3.00
2022-08-05T15:53:05.227Z,1.88
2022-08-05T15:56:03.955Z,3.88
2022-08-05T15:58:23.452Z,2.80
2022-08-05T16:01:11.606Z,5.15
2022-08-05T16:03:41.155Z,2.47
2022-08-05T16:06:11.408Z,3.92
2022-08-05T16:08:39.967Z,1.88
2022-08-05T16:11:08.573Z,1.25
2022-08-05T16:13:38.151Z,2.15
2022-08-05T16:18:34.413Z,1.52
2022-08-05T16:21:04.354Z,1.55
2022-08-05T16:23:54.193Z,2.13
2022-08-05T16:26:26.370Z,1.13
2022-08-05T16:28:56.571Z,1.88
2022-08-05T16:31:24.994Z,0.85
2022-08-05T16:33:53.712Z,2.03
2022-08-05T16:36:24.010Z,1.10
2022-08-05T16:38:55.569Z,1.58
2022-08-05T16:42:14.563Z,2.65
2022-08-05T16:44:15.401Z,1.75
2022-08-05T16:46:55.871Z,1.08
2022-08-05T16:49:26.344Z,1.85
2022-08-05T16:51:56.892Z,0.95
2022-08-05T16:54:29.010Z,2.20
2022-08-05T16:57:01.575Z,0.20
2022-08-05T16:59:31.610Z,1.27
2022-08-05T17:02:00.862Z,0.93
2022-08-05T17:04:29.239Z,1.42
2022-08-05T17:07:01.053Z,1.13
2022-08-05T17:09:30.066Z,1.77
2022-08-05T17:11:59.379Z,2.38
2022-08-05T17:14:34.307Z,2.78
2022-08-05T17:17:14.460Z,0.40
2022-08-05T17:19:45.503Z,0.40
2022-08-05T17:22:17.746Z,1.38
2022-08-05T17:24:57.525Z,2.13
2022-08-05T17:27:27.411Z,2.58
2022-08-05T17:30:02.448Z,0.43
2022-08-05T17:32:33.819Z,2.10
2022-08-05T17:35:03.278Z,1.08
2022-08-05T17:37:40.788Z,1.00
2022-08-05T17:40:15.429Z,1.25
2022-08-05T17:42:50.526Z,1.45
2022-08-05T17:45:21.806Z,1.10
2022-08-05T17:47:55.306Z,1.05
2022-08-05T17:50:28.327Z,3.05
2022-08-05T17:53:01.383Z,1.10
2022-08-05T17:55:37.199Z,2.80
2022-08-05T17:58:09.570Z,2.42
2022-08-05T18:00:40.914Z,2.25
2022-08-05T18:03:27.993Z,2.60
2022-08-05T18:06:04.905Z,2.00
2022-08-05T18:08:33.880Z,5.50
2022-08-05T18:11:03.283Z,2.03
2022-08-05T18:13:36.911Z,0.90
2022-08-05T18:16:14.505Z,2.70
2022-08-05T18:18:50.227Z,1.75
2022-08-05T18:21:21.239Z,2.20
2022-08-05T18:23:53.681Z,2.28
2022-08-05T18:26:29.313Z,2.10
2022-08-05T18:29:00.007Z,0.57
2022-08-05T18:31:32.951Z,3.25
2022-08-05T18:34:05.988Z,2.20
2022-08-05T18:36:36.386Z,0.95
2022-08-05T18:39:06.504Z,0.82
2022-08-05T18:42:00.750Z,2.05
2022-08-05T18:44:35.124Z,0.93
2022-08-05T18:47:15.753Z,1.80
2022-08-05T18:50:10.696Z,2.90
2022-08-05T18:52:41.779Z,1.05
2022-08-05T18:55:22.411Z,1.40
2022-08-05T18:57:53.369Z,0.45
2022-08-05T19:00:28.693Z,1.17
2022-08-05T19:03:03.759Z,1.75
2022-08-05T19:06:11.285Z,1.33
2022-08-05T19:08:30.549Z,1.23
2022-08-05T19:11:04.621Z,1.15
2022-08-05T19:13:35.619Z,1.02
2022-08-05T19:16:25.324Z,3.40
2022-08-05T19:18:56.806Z,1.58
2022-08-05T19:21:29.533Z,3.28
2022-08-05T19:24:05.634Z,1.27
2022-08-05T19:26:43.899Z,0.95
2022-08-05T19:29:26.633Z,1.42
2022-08-05T19:32:03.746Z,1.92
2022-08-05T19:34:32.605Z,1.70
2022-08-05T19:37:02.116Z,1.65
2022-08-05T19:39:31.939Z,1.33
2022-08-05T19:42:15.326Z,2.95
2022-08-05T19:44:45.192Z,1.70
2022-08-05T19:47:16.145Z,1.80
2022-08-05T19:49:45.185Z,2.08
2022-08-05T19:52:31.533Z,3.35
2022-08-05T19:55:07.074Z,1.17
2022-08-05T19:58:10.396Z,3.58
2022-08-05T20:00:38.271Z,2.00
2022-08-05T20:03:08.533Z,2.67
2022-08-05T20:05:43.200Z,2.67
2022-08-05T20:08:19.194Z,2.83
2022-08-05T20:10:49.763Z,4.22
2022-08-05T20:13:18.187Z,2.30
2022-08-05T20:15:59.760Z,1.58
2022-08-05T20:18:32.718Z,2.35
2022-08-05T20:21:02.192Z,2.42
2022-08-05T20:23:39.703Z,1.98
2022-08-05T20:26:18.962Z,2.28
2022-08-05T20:28:48.605Z,1.45
2022-08-05T20:31:17.780Z,2.13
2022-08-05T20:33:50.197Z,3.85
2022-08-05T20:36:19.048Z,6.22
2022-08-05T20:38:54.176Z,5.45
2022-08-05T20:41:43.204Z,3.63
2022-08-05T20:44:18.649Z,2.13
2022-08-05T20:46:57.834Z,1.38
2022-08-05T20:49:26.259Z,1.52
2022-08-05T20:51:54.929Z,2.08
2022-08-05T20:54:25.387Z,2.10
2022-08-05T20:56:53.492Z,2.40
2022-08-05T20:59:26.968Z,1.98
2022-08-05T21:02:10.074Z,1.58
2022-08-05T21:04:39.112Z,1.48
2022-08-05T21:07:08.977Z,2.50
2022-08-05T21:09:38.520Z,2.70
2022-08-05T21:12:21.703Z,1.48
2022-08-05T21:14:54.751Z,1.23
2022-08-05T21:17:25.722Z,3.63
2022-08-05T21:19:56.487Z,2.13
2022-08-05T21:22:26.880Z,2.45
2022-08-05T21:24:57.775Z,2.13
2022-08-05T21:27:27.457Z,2.13
2022-08-05T21:32:27.171Z,2.78
2022-08-05T21:35:18.027Z,3.80
2022-08-05T21:37:52.927Z,2.67
2022-08-05T21:40:23.389Z,1.00
2022-08-05T21:45:24.718Z,1.97
2022-08-05T21:47:57.741Z,1.98
2022-08-05T21:50:26.555Z,2.38
2022-08-05T21:52:58.923Z,1.95
2022-08-05T21:55:43.107Z,2.65
2022-08-05T21:58:24.965Z,2.53
2022-08-05T22:01:00.879Z,2.80
2022-08-05T22:03:52.543Z,4.38
2022-08-05T22:06:22.443Z,2.00
2022-08-05T22:08:52.006Z,1.90
2022-08-05T22:11:35.549Z,2.35
2022-08-05T22:14:33.200Z,2.10
2022-08-05T22:16:53.061Z,1.30
2022-08-05T22:20:03.033Z,1.23
2022-08-05T22:22:15.527Z,1.45
2022-08-05T22:28:05.061Z,2.42
2022-08-05T22:30:35.162Z,3.67
2022-08-05T22:33:15.882Z,1.02
2022-08-05T22:38:18.862Z,3.05
2022-08-05T22:40:49.642Z,2.58
2022-08-05T22:43:36.593Z,4.38
2022-08-05T22:46:12.265Z,3.28
2022-08-05T22:48:51.562Z,2.88
2022-08-05T22:51:23.198Z,1.50
2022-08-05T22:54:07.813Z,2.88
2022-08-05T22:56:35.850Z,2.05
2022-08-05T22:59:45.458Z,3.15
2022-08-05T23:02:05.959Z,2.17
2022-08-05T23:04:36.501Z,2.88
2022-08-05T23:09:57.826Z,1.83
2022-08-05T23:12:24.463Z,1.80
2022-08-05T23:14:53.951Z,1.92
2022-08-05T23:17:34.902Z,3.42
2022-08-05T23:20:16.735Z,3.22
2022-08-05T23:22:47.612Z,3.53
2022-08-05T23:25:52.910Z,1.95
2022-08-05T23:28:07.038Z,1.52
2022-08-05T23:30:40.437Z,1.77
2022-08-05T23:33:22.377Z,2.85
2022-08-05T23:36:01.337Z,2.97
2022-08-05T23:38:29.450Z,2.55
2022-08-05T23:40:57.721Z,1.13
2022-08-05T23:43:37.389Z,3.40
2022-08-05T23:46:20.087Z,2.63
2022-08-05T23:49:00.304Z,2.13
2022-08-05T23:51:51.723Z,2.53
2022-08-05T23:54:25.878Z,2.00
2022-08-05T23:57:03.494Z,1.27
